DLH8FC EDDM-EDDK
Flight info
| Callsign | DLH8FC |
|---|---|
| Flight time | 0h 47m |
| Altitude | 32000 |
| Route | GIVM6Q GIVMI Y101 ERNAS T161 GOLMO DCT AKANU L603 RATIM DCT ASKIK T840 GULKO GULK1F |
| Aircraft | A320/M-SDE3FGHIRWY/LB1 |
Departure
| Time | 2026-05-08 06:25 |
|---|---|
| Airport | Munich Airport (EDDM) |
Arrival
| Time | 2026-05-08 07:12 |
|---|---|
| Airport | Cologne Bonn Airport (EDDK) |
| Time | Latitude | Longitude | Altitude | Speed | Heading |
|---|---|---|---|---|---|
| 2026-05-08 06:05 | 48.35643 | 11.79273 | 1485 ft | 0 kts | 263° |
| 2026-05-08 06:16 | 48.35644 | 11.79283 | 1471 ft | 4 kts | 263° |
| 2026-05-08 06:16 | 48.35647 | 11.79323 | 1474 ft | 4 kts | 263° |
| 2026-05-08 06:16 | 48.35650 | 11.79357 | 1476 ft | 3 kts | 264° |
| 2026-05-08 06:16 | 48.35648 | 11.79394 | 1476 ft | 4 kts | 298° |
| 2026-05-08 06:17 | 48.35607 | 11.79427 | 1474 ft | 2 kts | 353° |
| 2026-05-08 06:17 | 48.35606 | 11.79428 | 1474 ft | 0 kts | 353° |
| 2026-05-08 06:19 | 48.35612 | 11.79428 | 1473 ft | 4 kts | 3° |
| 2026-05-08 06:19 | 48.35661 | 11.79479 | 1485 ft | 12 kts | 21° |
| 2026-05-08 06:19 | 48.35751 | 11.79472 | 1477 ft | 14 kts | 353° |
| 2026-05-08 06:20 | 48.35853 | 11.79455 | 1477 ft | 16 kts | 352° |
| 2026-05-08 06:20 | 48.35919 | 11.79361 | 1483 ft | 13 kts | 314° |
| 2026-05-08 06:20 | 48.36004 | 11.79331 | 1483 ft | 14 kts | 353° |
| 2026-05-08 06:20 | 48.36087 | 11.79270 | 1476 ft | 15 kts | 284° |
| 2026-05-08 06:21 | 48.36079 | 11.79125 | 1485 ft | 13 kts | 263° |
| 2026-05-08 06:21 | 48.36068 | 11.78983 | 1482 ft | 16 kts | 263° |
| 2026-05-08 06:21 | 48.36054 | 11.78790 | 1485 ft | 22 kts | 263° |
| 2026-05-08 06:21 | 48.36034 | 11.78537 | 1471 ft | 25 kts | 263° |
| 2026-05-08 06:22 | 48.36014 | 11.78265 | 1485 ft | 27 kts | 263° |
| 2026-05-08 06:22 | 48.35992 | 11.77988 | 1480 ft | 26 kts | 263° |
| 2026-05-08 06:22 | 48.35976 | 11.77779 | 1483 ft | 13 kts | 263° |
| 2026-05-08 06:22 | 48.35997 | 11.77665 | 1478 ft | 11 kts | 332° |
| 2026-05-08 06:23 | 48.36072 | 11.77656 | 1485 ft | 11 kts | 357° |
| 2026-05-08 06:23 | 48.36146 | 11.77703 | 1483 ft | 14 kts | 48° |
| 2026-05-08 06:23 | 48.36214 | 11.77839 | 1473 ft | 17 kts | 53° |
| 2026-05-08 06:23 | 48.36288 | 11.77990 | 1474 ft | 19 kts | 53° |
| 2026-05-08 06:24 | 48.36367 | 11.78150 | 1473 ft | 18 kts | 53° |
| 2026-05-08 06:24 | 48.36399 | 11.78343 | 1485 ft | 24 kts | 83° |
| 2026-05-08 06:24 | 48.36445 | 11.78925 | 1485 ft | 92 kts | 83° |
| 2026-05-08 06:24 | 48.36545 | 11.80204 | 1487 ft | 150 kts | 83° |
| 2026-05-08 06:25 | 48.36681 | 11.81830 | 2057 ft | 157 kts | 82° |
| 2026-05-08 06:25 | 48.36832 | 11.83480 | 2784 ft | 162 kts | 82° |
| 2026-05-08 06:25 | 48.37055 | 11.85205 | 3196 ft | 178 kts | 66° |
| 2026-05-08 06:25 | 48.37928 | 11.86555 | 3695 ft | 190 kts | 23° |
| 2026-05-08 06:26 | 48.39274 | 11.86735 | 4192 ft | 201 kts | 352° |
| 2026-05-08 06:26 | 48.40697 | 11.86432 | 4723 ft | 213 kts | 348° |
| 2026-05-08 06:26 | 48.42155 | 11.85590 | 5247 ft | 234 kts | 326° |
| 2026-05-08 06:26 | 48.43329 | 11.83817 | 5854 ft | 248 kts | 303° |
| 2026-05-08 06:27 | 48.44367 | 11.81690 | 6547 ft | 262 kts | 308° |
| 2026-05-08 06:27 | 48.45572 | 11.79563 | 7332 ft | 270 kts | 310° |
| 2026-05-08 06:27 | 48.46833 | 11.77438 | 8305 ft | 271 kts | 310° |
| 2026-05-08 06:27 | 48.48106 | 11.75308 | 9261 ft | 274 kts | 309° |
| 2026-05-08 06:28 | 48.49381 | 11.73152 | 10189 ft | 277 kts | 309° |
| 2026-05-08 06:28 | 48.50701 | 11.70889 | 10631 ft | 298 kts | 309° |
| 2026-05-08 06:28 | 48.52096 | 11.68455 | 10910 ft | 321 kts | 309° |
| 2026-05-08 06:28 | 48.53587 | 11.65831 | 11456 ft | 333 kts | 309° |
| 2026-05-08 06:29 | 48.55107 | 11.63148 | 12185 ft | 339 kts | 309° |
| 2026-05-08 06:29 | 48.56656 | 11.60408 | 12939 ft | 344 kts | 309° |
| 2026-05-08 06:29 | 48.58222 | 11.57634 | 13699 ft | 349 kts | 309° |
| 2026-05-08 06:29 | 48.59790 | 11.54859 | 14379 ft | 353 kts | 309° |
| 2026-05-08 06:30 | 48.61398 | 11.52013 | 15063 ft | 357 kts | 309° |
| 2026-05-08 06:30 | 48.63022 | 11.49133 | 15753 ft | 361 kts | 309° |
| 2026-05-08 06:30 | 48.64657 | 11.46227 | 16421 ft | 364 kts | 309° |
| 2026-05-08 06:30 | 48.66312 | 11.43272 | 17101 ft | 368 kts | 308° |
| 2026-05-08 06:31 | 48.67955 | 11.40341 | 17749 ft | 372 kts | 309° |
| 2026-05-08 06:31 | 48.69684 | 11.37389 | 18392 ft | 376 kts | 314° |
| 2026-05-08 06:31 | 48.71716 | 11.34847 | 18950 ft | 382 kts | 323° |
| 2026-05-08 06:31 | 48.73941 | 11.32597 | 19511 ft | 385 kts | 324° |
| 2026-05-08 06:32 | 48.76179 | 11.30338 | 20079 ft | 388 kts | 324° |
| 2026-05-08 06:32 | 48.78433 | 11.28060 | 20638 ft | 390 kts | 324° |
| 2026-05-08 06:32 | 48.80707 | 11.25758 | 21198 ft | 393 kts | 324° |
| 2026-05-08 06:32 | 48.82997 | 11.23436 | 21739 ft | 396 kts | 324° |
| 2026-05-08 06:33 | 48.85205 | 11.20926 | 22271 ft | 397 kts | 316° |
| 2026-05-08 06:33 | 48.87223 | 11.18126 | 22787 ft | 399 kts | 315° |
| 2026-05-08 06:33 | 48.89277 | 11.15263 | 23323 ft | 402 kts | 315° |
| 2026-05-08 06:33 | 48.91354 | 11.12365 | 23815 ft | 404 kts | 315° |
| 2026-05-08 06:34 | 48.93435 | 11.09449 | 24243 ft | 406 kts | 313° |
| 2026-05-08 06:34 | 48.95297 | 11.06220 | 24675 ft | 406 kts | 304° |
| 2026-05-08 06:34 | 48.96773 | 11.02541 | 25098 ft | 406 kts | 294° |
| 2026-05-08 06:34 | 48.97809 | 10.98609 | 25511 ft | 406 kts | 287° |
| 2026-05-08 06:35 | 48.98716 | 10.94514 | 25937 ft | 408 kts | 287° |
| 2026-05-08 06:35 | 48.99631 | 10.90401 | 26362 ft | 410 kts | 287° |
| 2026-05-08 06:35 | 49.00552 | 10.86278 | 26781 ft | 412 kts | 287° |
| 2026-05-08 06:35 | 49.01478 | 10.82133 | 27184 ft | 414 kts | 287° |
| 2026-05-08 06:36 | 49.02404 | 10.77966 | 27586 ft | 416 kts | 287° |
| 2026-05-08 06:36 | 49.03021 | 10.75182 | 27853 ft | 417 kts | 287° |
| 2026-05-08 06:36 | 49.03964 | 10.70995 | 28238 ft | 420 kts | 289° |
| 2026-05-08 06:36 | 49.05237 | 10.66960 | 28611 ft | 424 kts | 298° |
| 2026-05-08 06:37 | 49.06955 | 10.63254 | 28969 ft | 429 kts | 308° |
| 2026-05-08 06:37 | 49.09022 | 10.60012 | 29303 ft | 433 kts | 313° |
| 2026-05-08 06:37 | 49.11195 | 10.56815 | 29640 ft | 435 kts | 313° |
| 2026-05-08 06:37 | 49.13373 | 10.53588 | 29985 ft | 437 kts | 313° |
| 2026-05-08 06:38 | 49.15558 | 10.50342 | 30294 ft | 439 kts | 313° |
| 2026-05-08 06:38 | 49.17756 | 10.47070 | 30563 ft | 441 kts | 313° |
| 2026-05-08 06:38 | 49.19954 | 10.43799 | 30916 ft | 440 kts | 313° |
| 2026-05-08 06:38 | 49.22148 | 10.40526 | 31317 ft | 439 kts | 313° |
| 2026-05-08 06:39 | 49.24251 | 10.37156 | 31709 ft | 436 kts | 307° |
| 2026-05-08 06:39 | 49.26169 | 10.33559 | 32040 ft | 435 kts | 306° |
| 2026-05-08 06:39 | 49.29951 | 10.26469 | 32132 ft | 427 kts | 307° |
| 2026-05-08 06:40 | 49.33716 | 10.19422 | 32117 ft | 426 kts | 306° |
| 2026-05-08 06:40 | 49.37467 | 10.12367 | 32112 ft | 425 kts | 306° |
| 2026-05-08 06:41 | 49.41181 | 10.05350 | 32110 ft | 425 kts | 306° |
| 2026-05-08 06:41 | 49.44917 | 9.98287 | 32109 ft | 425 kts | 306° |
| 2026-05-08 06:42 | 49.48652 | 9.91206 | 32113 ft | 425 kts | 306° |
| 2026-05-08 06:42 | 49.52388 | 9.84098 | 32110 ft | 425 kts | 306° |
| 2026-05-08 06:43 | 49.56087 | 9.77048 | 32106 ft | 425 kts | 306° |
| 2026-05-08 06:43 | 49.59801 | 9.69943 | 32103 ft | 426 kts | 306° |
| 2026-05-08 06:44 | 49.63513 | 9.62809 | 32106 ft | 425 kts | 306° |
| 2026-05-08 06:44 | 49.67225 | 9.55662 | 32106 ft | 425 kts | 306° |
| 2026-05-08 06:45 | 49.70580 | 9.48248 | 32101 ft | 423 kts | 297° |
| 2026-05-08 06:45 | 49.73517 | 9.40349 | 32108 ft | 423 kts | 297° |
| 2026-05-08 06:46 | 49.77079 | 9.33111 | 32105 ft | 428 kts | 314° |
| 2026-05-08 06:46 | 49.81429 | 9.26771 | 32109 ft | 429 kts | 314° |
| 2026-05-08 06:47 | 49.85768 | 9.20466 | 32114 ft | 429 kts | 314° |
| 2026-05-08 06:47 | 49.90131 | 9.14112 | 31906 ft | 430 kts | 314° |
| 2026-05-08 06:48 | 49.92312 | 9.10933 | 31650 ft | 430 kts | 314° |
| 2026-05-08 06:48 | 49.94488 | 9.07752 | 31404 ft | 431 kts | 314° |
| 2026-05-08 06:48 | 49.96674 | 9.04542 | 31159 ft | 431 kts | 314° |
| 2026-05-08 06:48 | 49.98858 | 9.01322 | 30908 ft | 432 kts | 314° |
| 2026-05-08 06:49 | 50.01046 | 8.98090 | 30660 ft | 433 kts | 314° |
| 2026-05-08 06:49 | 50.03214 | 8.94888 | 30423 ft | 434 kts | 314° |
| 2026-05-08 06:49 | 50.05406 | 8.91645 | 30173 ft | 435 kts | 314° |
| 2026-05-08 06:49 | 50.07606 | 8.88392 | 29890 ft | 436 kts | 314° |
| 2026-05-08 06:50 | 50.09821 | 8.85126 | 29600 ft | 436 kts | 314° |
| 2026-05-08 06:50 | 50.11999 | 8.81911 | 29322 ft | 435 kts | 314° |
| 2026-05-08 06:50 | 50.14185 | 8.78672 | 29040 ft | 433 kts | 314° |
| 2026-05-08 06:50 | 50.16362 | 8.75436 | 28762 ft | 431 kts | 314° |
| 2026-05-08 06:51 | 50.18534 | 8.72199 | 28486 ft | 430 kts | 314° |
| 2026-05-08 06:51 | 50.20699 | 8.68972 | 28211 ft | 428 kts | 314° |
| 2026-05-08 06:51 | 50.22855 | 8.65756 | 27946 ft | 426 kts | 314° |
| 2026-05-08 06:51 | 50.25002 | 8.62548 | 27675 ft | 425 kts | 314° |
| 2026-05-08 06:52 | 50.27135 | 8.59357 | 27409 ft | 423 kts | 314° |
| 2026-05-08 06:52 | 50.29237 | 8.56211 | 27153 ft | 422 kts | 314° |
| 2026-05-08 06:52 | 50.31359 | 8.53032 | 26892 ft | 420 kts | 314° |
| 2026-05-08 06:52 | 50.33467 | 8.49871 | 26632 ft | 419 kts | 314° |
| 2026-05-08 06:53 | 50.35570 | 8.46708 | 26376 ft | 417 kts | 314° |
| 2026-05-08 06:53 | 50.37665 | 8.43544 | 26117 ft | 415 kts | 314° |
| 2026-05-08 06:53 | 50.39723 | 8.40436 | 25876 ft | 414 kts | 314° |
| 2026-05-08 06:53 | 50.41791 | 8.37316 | 25490 ft | 410 kts | 314° |
| 2026-05-08 06:54 | 50.43837 | 8.34225 | 24895 ft | 406 kts | 314° |
| 2026-05-08 06:54 | 50.45865 | 8.31160 | 24300 ft | 403 kts | 314° |
| 2026-05-08 06:54 | 50.47876 | 8.28121 | 23708 ft | 400 kts | 314° |
| 2026-05-08 06:54 | 50.49869 | 8.25103 | 23095 ft | 395 kts | 314° |
| 2026-05-08 06:55 | 50.51836 | 8.22122 | 22555 ft | 390 kts | 314° |
| 2026-05-08 06:55 | 50.53776 | 8.19174 | 22057 ft | 384 kts | 314° |
| 2026-05-08 06:55 | 50.55684 | 8.16264 | 21551 ft | 379 kts | 314° |
| 2026-05-08 06:55 | 50.57573 | 8.13379 | 21090 ft | 374 kts | 314° |
| 2026-05-08 06:56 | 50.59436 | 8.10548 | 20617 ft | 370 kts | 316° |
| 2026-05-08 06:56 | 50.61440 | 8.08097 | 20149 ft | 368 kts | 325° |
| 2026-05-08 06:56 | 50.63592 | 8.05931 | 19674 ft | 365 kts | 325° |
| 2026-05-08 06:56 | 50.65727 | 8.03776 | 19211 ft | 363 kts | 325° |
| 2026-05-08 06:57 | 50.67850 | 8.01624 | 18731 ft | 361 kts | 325° |
| 2026-05-08 06:57 | 50.69962 | 7.99475 | 18226 ft | 360 kts | 325° |
| 2026-05-08 06:57 | 50.72065 | 7.97331 | 17713 ft | 358 kts | 325° |
| 2026-05-08 06:57 | 50.74106 | 7.95114 | 17224 ft | 354 kts | 319° |
| 2026-05-08 06:58 | 50.75870 | 7.92425 | 16740 ft | 350 kts | 309° |
| 2026-05-08 06:58 | 50.77280 | 7.89363 | 16258 ft | 347 kts | 301° |
| 2026-05-08 06:58 | 50.78580 | 7.86153 | 15777 ft | 346 kts | 302° |
| 2026-05-08 06:58 | 50.79881 | 7.82961 | 15289 ft | 344 kts | 302° |
| 2026-05-08 06:59 | 50.81179 | 7.79774 | 14794 ft | 343 kts | 302° |
| 2026-05-08 06:59 | 50.82472 | 7.76590 | 14320 ft | 343 kts | 302° |
| 2026-05-08 06:59 | 50.83764 | 7.73407 | 13815 ft | 343 kts | 302° |
| 2026-05-08 06:59 | 50.85052 | 7.70226 | 13281 ft | 342 kts | 302° |
| 2026-05-08 07:00 | 50.86309 | 7.67120 | 12916 ft | 336 kts | 301° |
| 2026-05-08 07:00 | 50.87565 | 7.64007 | 12530 ft | 332 kts | 301° |
| 2026-05-08 07:00 | 50.88801 | 7.60937 | 12136 ft | 328 kts | 301° |
| 2026-05-08 07:00 | 50.90018 | 7.57908 | 11755 ft | 324 kts | 301° |
| 2026-05-08 07:01 | 50.91223 | 7.54904 | 11378 ft | 320 kts | 301° |
| 2026-05-08 07:01 | 50.92402 | 7.51971 | 11008 ft | 318 kts | 301° |
| 2026-05-08 07:01 | 50.93586 | 7.49028 | 10646 ft | 315 kts | 301° |
| 2026-05-08 07:01 | 50.94763 | 7.46104 | 10280 ft | 313 kts | 301° |
| 2026-05-08 07:02 | 50.95934 | 7.43193 | 9881 ft | 312 kts | 301° |
| 2026-05-08 07:02 | 50.97099 | 7.40286 | 9492 ft | 310 kts | 301° |
| 2026-05-08 07:02 | 50.98252 | 7.37396 | 9090 ft | 307 kts | 301° |
| 2026-05-08 07:02 | 50.99384 | 7.34550 | 8718 ft | 303 kts | 301° |
| 2026-05-08 07:03 | 51.00502 | 7.31737 | 8363 ft | 299 kts | 301° |
| 2026-05-08 07:03 | 51.01603 | 7.28964 | 8003 ft | 294 kts | 301° |
| 2026-05-08 07:03 | 51.02694 | 7.26222 | 7642 ft | 290 kts | 302° |
| 2026-05-08 07:03 | 51.03765 | 7.23532 | 7293 ft | 286 kts | 302° |
| 2026-05-08 07:04 | 51.04465 | 7.21772 | 7065 ft | 282 kts | 302° |
| 2026-05-08 07:04 | 51.05689 | 7.18691 | 6701 ft | 273 kts | 302° |
| 2026-05-08 07:04 | 51.06660 | 7.16243 | 6400 ft | 257 kts | 302° |
| 2026-05-08 07:04 | 51.07419 | 7.13764 | 6086 ft | 243 kts | 288° |
| 2026-05-08 07:05 | 51.07748 | 7.11186 | 5779 ft | 232 kts | 274° |
| 2026-05-08 07:05 | 51.07718 | 7.08650 | 5524 ft | 228 kts | 267° |
| 2026-05-08 07:05 | 51.07622 | 7.06158 | 5270 ft | 224 kts | 267° |
| 2026-05-08 07:05 | 51.07534 | 7.03695 | 5019 ft | 222 kts | 267° |
| 2026-05-08 07:06 | 51.07449 | 7.01243 | 4759 ft | 221 kts | 267° |
| 2026-05-08 07:06 | 51.07363 | 6.98799 | 4504 ft | 219 kts | 267° |
| 2026-05-08 07:06 | 51.07269 | 6.96423 | 4241 ft | 211 kts | 263° |
| 2026-05-08 07:06 | 51.06812 | 6.94252 | 3981 ft | 205 kts | 238° |
| 2026-05-08 07:07 | 51.05857 | 6.92625 | 3725 ft | 201 kts | 214° |
| 2026-05-08 07:07 | 51.04589 | 6.91756 | 3483 ft | 202 kts | 191° |
| 2026-05-08 07:07 | 51.03186 | 6.91778 | 3258 ft | 203 kts | 166° |
| 2026-05-08 07:07 | 51.01911 | 6.92726 | 3073 ft | 201 kts | 141° |
| 2026-05-08 07:08 | 51.00894 | 6.94181 | 3002 ft | 193 kts | 137° |
| 2026-05-08 07:08 | 50.99931 | 6.95592 | 3031 ft | 189 kts | 137° |
| 2026-05-08 07:08 | 50.98966 | 6.97003 | 3014 ft | 188 kts | 137° |
| 2026-05-08 07:08 | 50.98005 | 6.98405 | 2903 ft | 186 kts | 137° |
| 2026-05-08 07:09 | 50.97366 | 6.99340 | 2762 ft | 182 kts | 137° |
| 2026-05-08 07:09 | 50.96457 | 7.00666 | 2545 ft | 178 kts | 137° |
| 2026-05-08 07:09 | 50.95550 | 7.01989 | 2305 ft | 174 kts | 137° |
| 2026-05-08 07:09 | 50.94668 | 7.03272 | 2067 ft | 168 kts | 138° |
| 2026-05-08 07:10 | 50.93827 | 7.04498 | 1858 ft | 158 kts | 138° |
| 2026-05-08 07:10 | 50.93043 | 7.05642 | 1661 ft | 146 kts | 138° |
| 2026-05-08 07:10 | 50.92321 | 7.06693 | 1455 ft | 140 kts | 137° |
| 2026-05-08 07:10 | 50.91613 | 7.07716 | 1232 ft | 136 kts | 137° |
| 2026-05-08 07:11 | 50.90920 | 7.08720 | 1052 ft | 134 kts | 136° |
| 2026-05-08 07:11 | 50.90235 | 7.09720 | 857 ft | 133 kts | 136° |
| 2026-05-08 07:11 | 50.89553 | 7.10708 | 676 ft | 133 kts | 136° |
| 2026-05-08 07:11 | 50.88880 | 7.11709 | 488 ft | 131 kts | 136° |
| 2026-05-08 07:12 | 50.88213 | 7.12673 | 347 ft | 129 kts | 136° |
| 2026-05-08 07:12 | 50.87570 | 7.13594 | 242 ft | 116 kts | 137° |
| 2026-05-08 07:12 | 50.87091 | 7.14298 | 252 ft | 72 kts | 137° |
| 2026-05-08 07:12 | 50.86911 | 7.14548 | 260 ft | 11 kts | 160° |
| 2026-05-08 07:13 | 50.86867 | 7.14486 | 261 ft | 9 kts | 267° |
| 2026-05-08 07:13 | 50.86880 | 7.14388 | 259 ft | 11 kts | 280° |
| 2026-05-08 07:13 | 50.86895 | 7.14256 | 256 ft | 13 kts | 280° |
| 2026-05-08 07:13 | 50.86912 | 7.14107 | 255 ft | 13 kts | 279° |
| 2026-05-08 07:14 | 50.86926 | 7.13959 | 251 ft | 15 kts | 281° |
| 2026-05-08 07:14 | 50.86998 | 7.13815 | 244 ft | 19 kts | 318° |
| 2026-05-08 07:14 | 50.87099 | 7.13668 | 240 ft | 21 kts | 317° |
| 2026-05-08 07:14 | 50.87216 | 7.13498 | 240 ft | 25 kts | 317° |
| 2026-05-08 07:15 | 50.87355 | 7.13299 | 232 ft | 28 kts | 317° |
| 2026-05-08 07:15 | 50.87479 | 7.13119 | 232 ft | 25 kts | 317° |
| 2026-05-08 07:15 | 50.87612 | 7.12927 | 232 ft | 27 kts | 317° |
| 2026-05-08 07:15 | 50.87724 | 7.12763 | 232 ft | 19 kts | 317° |
| 2026-05-08 07:16 | 50.87771 | 7.12649 | 232 ft | 11 kts | 268° |
| 2026-05-08 07:16 | 50.87740 | 7.12545 | 232 ft | 10 kts | 225° |
| 2026-05-08 07:16 | 50.87685 | 7.12504 | 232 ft | 7 kts | 218° |
| 2026-05-08 07:16 | 50.87685 | 7.12438 | 232 ft | 6 kts | 286° |
| 2026-05-08 07:17 | 50.87693 | 7.12398 | 233 ft | 2 kts | 288° |
| 2026-05-08 07:17 | 50.87696 | 7.12386 | 232 ft | 0 kts | 288° |